Time;durP1;ratioP1;P1;durP2;ratioP2;P2;SDS_P1;SDS_P2;PMS_P1;PMS_P2;Temp;Humidity;BMP_temperature;BMP_pressure;BME280_temperature;BME280_humidity;BME280_pressure;Samples;Min_cycle;Max_cycle;Signal;HPM_P1;HPM_P2
2024/01/20 00:01:15;;;;;;;22.73;13.95;;;;;;;;;;2089216;22;20034;-63
2024/01/20 00:02:34;;;;;;;21.42;12.07;;;;;;;;;;2061219;28;20413;-65
2024/01/20 00:03:53;;;;;;;20.00;11.80;;;;;;;;;;2069687;28;20046;-64
2024/01/20 00:05:12;;;;;;;22.05;12.43;;;;;;;;;;2068375;28;20071;-62
2024/01/20 00:06:28;;;;;;;21.25;12.25;;;;;;;;;;2157625;23;20052;-85
2024/01/20 00:07:52;;;;;;;22.42;12.73;;;;;;;;;;2104550;28;20040;-84
2024/01/20 00:09:39;;;;;;;20.08;11.48;;;;;;;;;;2100778;28;20037;-84
2024/01/20 00:11:22;;;;;;;19.13;11.55;;;;;;;;;;2111492;28;20036;-84
2024/01/20 00:12:57;;;;;;;17.42;10.35;;;;;;;;;;2102970;28;20423;-84
2024/01/20 00:16:40;;;;;;;;;;;;;;;;;;;;;
2024/01/20 00:18:12;;;;;;;19.77;11.85;;;;;;;;;;2111484;28;20027;-85
2024/01/20 00:20:02;;;;;;;20.15;11.38;;;;;;;;;;2102332;28;20892;-84
2024/01/20 00:23:49;;;;;;;;;;;;;;;;;;;;;
2024/01/20 00:26:54;;;;;;;19.10;10.68;;;;;;;;;;2074044;28;20026;-84
2024/01/20 00:28:27;;;;;;;17.20;9.82;;;;;;;;;;2067880;28;20141;-86
2024/01/20 00:29:53;;;;;;;15.77;10.43;;;;;;;;;;2106990;28;20028;-83
2024/01/20 00:31:21;;;;;;;18.58;10.23;;;;;;;;;;2104659;28;20020;-84
2024/01/20 00:32:44;;;;;;;15.90;10.48;;;;;;;;;;2102632;28;20064;-85
2024/01/20 00:34:19;;;;;;;19.30;10.63;;;;;;;;;;2103049;28;20032;-83
2024/01/20 00:35:51;;;;;;;14.43;9.88;;;;;;;;;;2104327;28;20020;-84
2024/01/20 00:37:28;;;;;;;16.35;10.32;;;;;;;;;;2100909;28;20024;-83
2024/01/20 00:39:30;;;;;;;;;;;;;;;;;;;;;
2024/01/20 00:41:12;;;;;;;;;;;;;;;;;;;;;
2024/01/20 00:43:25;;;;;;;18.25;10.85;;;;;;;;;;2115916;27;20024;-84
2024/01/20 00:45:07;;;;;;;20.58;11.52;;;;;;;;;;2113923;28;20043;-84
2024/01/20 00:46:42;;;;;;;;;;;;;;;;;;;;;
2024/01/20 00:48:31;;;;;;;20.33;11.45;;;;;;;;;;2081205;28;20037;-84
2024/01/20 00:50:03;;;;;;;;;;;;;;;;;;;;;
2024/01/20 00:51:37;;;;;;;21.08;10.80;;;;;;;;;;2108052;28;20492;-84
2024/01/20 00:53:33;;;;;;;18.73;10.40;;;;;;;;;;2104831;28;20123;-84
2024/01/20 00:56:56;;;;;;;20.23;11.32;;;;;;;;;;2110967;28;20031;-84
2024/01/20 00:58:28;;;;;;;13.25;9.05;;;;;;;;;;2095994;28;20029;-83
2024/01/20 01:00:08;;;;;;;;;;;;;;;;;;;;;
2024/01/20 01:03:43;;;;;;;20.08;11.40;;;;;;;;;;2102936;28;20032;-84
2024/01/20 01:05:13;;;;;;;23.48;11.40;;;;;;;;;;2097397;28;20119;-85
2024/01/20 01:06:39;;;;;;;18.27;10.80;;;;;;;;;;2094665;28;20057;-84
2024/01/20 01:12:28;;;;;;;24.25;11.70;;;;;;;;;;2101155;28;20071;-85
2024/01/20 01:14:00;;;;;;;22.73;12.05;;;;;;;;;;2097103;28;20048;-84
2024/01/20 01:17:32;;;;;;;21.90;12.57;;;;;;;;;;2096625;28;20111;-84
2024/01/20 01:19:07;;;;;;;20.13;12.43;;;;;;;;;;2105416;28;20146;-86
2024/01/20 01:21:21;;;;;;;21.02;11.93;;;;;;;;;;2095956;28;20386;-84
2024/01/20 01:25:12;;;;;;;26.42;13.35;;;;;;;;;;2097886;28;20052;-85
2024/01/20 01:26:43;;;;;;;21.38;12.50;;;;;;;;;;2079629;28;20022;-84
2024/01/20 01:28:06;;;;;;;22.33;12.85;;;;;;;;;;2089276;28;20037;-84
2024/01/20 01:29:42;;;;;;;20.88;12.60;;;;;;;;;;2081807;28;20037;-84
2024/01/20 01:31:33;;;;;;;26.33;12.93;;;;;;;;;;2089820;28;20498;-84
2024/01/20 01:32:55;;;;;;;21.25;12.82;;;;;;;;;;2046995;28;20031;-84
2024/01/20 01:34:19;;;;;;;24.70;13.07;;;;;;;;;;2051499;28;20110;-83
2024/01/20 01:38:05;;;;;;;;;;;;;;;;;;;;;
2024/01/20 01:39:31;;;;;;;23.50;13.52;;;;;;;;;;2088925;28;20029;-84
2024/01/20 01:41:19;;;;;;;;;;;;;;;;;;;;;
2024/01/20 01:44:55;;;;;;;20.70;12.35;;;;;;;;;;2087076;28;20033;-85
2024/01/20 01:46:23;;;;;;;22.20;12.23;;;;;;;;;;2082814;28;20028;-84
2024/01/20 01:48:17;;;;;;;20.13;11.95;;;;;;;;;;2080329;28;20048;-84
2024/01/20 01:49:59;;;;;;;20.85;12.32;;;;;;;;;;2080875;28;20022;-84
2024/01/20 01:51:21;;;;;;;20.55;11.82;;;;;;;;;;2087056;28;20536;-84
2024/01/20 01:52:43;;;;;;;26.30;12.82;;;;;;;;;;2078762;28;20407;-84
2024/01/20 01:54:24;;;;;;;;;;;;;;;;;;;;;
2024/01/20 01:55:58;;;;;;;23.73;12.43;;;;;;;;;;2091133;28;20029;-84
2024/01/20 01:57:29;;;;;;;20.30;11.65;;;;;;;;;;2080346;28;20044;-84
2024/01/20 01:59:15;;;;;;;19.35;11.02;;;;;;;;;;2096241;28;20036;-84
2024/01/20 02:01:36;;;;;;;22.58;11.68;;;;;;;;;;2105285;28;20024;-83
2024/01/20 02:02:39;;;;;;;21.33;12.68;;;;;;;;;;2094523;28;20041;-85
2024/01/20 02:04:15;;;;;;;;;;;;;;;;;;;;;
2024/01/20 02:10:21;;;;;;;18.77;11.02;;;;;;;;;;2069232;28;20042;-84
2024/01/20 02:12:19;;;;;;;20.52;10.88;;;;;;;;;;2084832;28;20108;-84
2024/01/20 02:16:21;;;;;;;19.70;10.32;;;;;;;;;;2097828;28;20041;-83
2024/01/20 02:18:10;;;;;;;19.15;10.10;;;;;;;;;;2095447;28;20041;-85
2024/01/20 02:20:10;;;;;;;18.02;10.13;;;;;;;;;;2086627;28;20033;-84
2024/01/20 02:21:34;;;;;;;13.55;9.00;;;;;;;;;;2060437;28;20038;-84
2024/01/20 02:25:07;;;;;;;14.00;10.02;;;;;;;;;;2091066;28;20977;-84
2024/01/20 02:28:20;;;;;;;;;;;;;;;;;;;;;
2024/01/20 02:29:40;;;;;;;15.13;9.52;;;;;;;;;;2092995;28;20056;-84
2024/01/20 02:31:23;;;;;;;19.42;9.65;;;;;;;;;;2083573;28;20029;-84
2024/01/20 02:33:24;;;;;;;14.18;8.75;;;;;;;;;;2086964;28;20530;-84
2024/01/20 02:34:50;;;;;;;16.55;8.70;;;;;;;;;;2089663;28;20029;-84
2024/01/20 02:36:12;;;;;;;14.63;8.52;;;;;;;;;;2085275;28;20053;-84
2024/01/20 02:37:32;;;;;;;11.27;7.32;;;;;;;;;;2079713;28;20494;-84
2024/01/20 02:38:51;;;;;;;17.52;9.60;;;;;;;;;;2085217;28;20771;-84
2024/01/20 02:40:14;;;;;;;15.50;8.57;;;;;;;;;;2082905;28;20040;-84
2024/01/20 02:41:39;;;;;;;11.60;8.25;;;;;;;;;;2090536;28;20029;-84
2024/01/20 02:45:04;;;;;;;21.77;8.90;;;;;;;;;;2090269;28;20482;-84
2024/01/20 02:46:36;;;;;;;;;;;;;;;;;;;;;
2024/01/20 02:48:12;;;;;;;11.52;6.85;;;;;;;;;;2090968;28;20056;-84
2024/01/20 02:49:40;;;;;;;15.00;8.73;;;;;;;;;;2085104;28;20041;-84
2024/01/20 02:51:27;;;;;;;11.82;8.25;;;;;;;;;;2082671;28;20033;-84
2024/01/20 02:53:04;;;;;;;15.60;8.63;;;;;;;;;;2082836;28;20045;-84
2024/01/20 02:54:49;;;;;;;13.25;8.15;;;;;;;;;;2089119;28;20040;-84
2024/01/20 02:56:39;;;;;;;;;;;;;;;;;;;;;
2024/01/20 02:58:20;;;;;;;;;;;;;;;;;;;;;
2024/01/20 02:59:53;;;;;;;16.33;8.50;;;;;;;;;;2096652;28;20056;-84
2024/01/20 03:01:59;;;;;;;13.27;8.93;;;;;;;;;;2089864;28;20096;-83
2024/01/20 03:03:43;;;;;;;;;;;;;;;;;;;;;
2024/01/20 03:05:37;;;;;;;10.90;7.75;;;;;;;;;;2097268;28;20067;-85
2024/01/20 03:09:14;;;;;;;;;;;;;;;;;;;;;
2024/01/20 03:12:35;;;;;;;;;;;;;;;;;;;;;
2024/01/20 03:14:34;;;;;;;14.07;8.40;;;;;;;;;;2107848;28;20107;-85
2024/01/20 03:16:21;;;;;;;13.02;7.28;;;;;;;;;;2106050;28;20035;-83
2024/01/20 03:18:00;;;;;;;20.90;8.95;;;;;;;;;;2099191;28;20028;-83
2024/01/20 03:19:32;;;;;;;11.60;7.55;;;;;;;;;;2106907;28;20024;-86
2024/01/20 03:24:52;;;;;;;13.57;8.05;;;;;;;;;;2112173;28;20041;-86
2024/01/20 03:26:28;;;;;;;10.77;7.75;;;;;;;;;;2098555;28;20473;-86
2024/01/20 03:28:11;;;;;;;12.57;7.82;;;;;;;;;;2100949;28;20032;-85
2024/01/20 03:29:51;;;;;;;13.50;8.02;;;;;;;;;;2108302;28;20032;-85
2024/01/20 03:31:52;;;;;;;11.65;8.25;;;;;;;;;;2097913;28;20024;-83
2024/01/20 03:33:35;;;;;;;11.60;7.95;;;;;;;;;;2064043;28;20037;-85
2024/01/20 03:35:25;;;;;;;;;;;;;;;;;;;;;
2024/01/20 03:37:33;;;;;;;;;;;;;;;;;;;;;
2024/01/20 03:41:08;;;;;;;;;;;;;;;;;;;;;
2024/01/20 03:43:01;;;;;;;12.50;7.25;;;;;;;;;;2020680;29;20583;-86
2024/01/20 03:44:32;;;;;;;13.38;7.47;;;;;;;;;;2036298;29;20028;-86
2024/01/20 03:46:28;;;;;;;10.52;7.38;;;;;;;;;;2059210;28;20027;-86
2024/01/20 03:52:36;;;;;;;;;;;;;;;;;;;;;
2024/01/20 03:54:14;;;;;;;11.90;8.00;;;;;;;;;;2085206;28;20056;-85
2024/01/20 03:56:06;;;;;;;11.32;7.90;;;;;;;;;;2091491;28;20037;-86
2024/01/20 03:57:57;;;;;;;12.10;8.30;;;;;;;;;;2109741;28;20020;-85
2024/01/20 03:59:46;;;;;;;17.75;9.07;;;;;;;;;;2110353;28;20032;-85
2024/01/20 04:03:44;;;;;;;13.43;8.35;;;;;;;;;;2083912;28;20486;-86
2024/01/20 04:05:18;;;;;;;12.50;8.18;;;;;;;;;;2087377;28;20033;-86
2024/01/20 04:10:58;;;;;;;;;;;;;;;;;;;;;
2024/01/20 04:12:24;;;;;;;11.35;6.63;;;;;;;;;;2109408;28;20623;-86
2024/01/20 04:14:14;;;;;;;9.50;7.10;;;;;;;;;;2102460;28;20025;-86
2024/01/20 04:15:52;;;;;;;12.18;7.40;;;;;;;;;;2100755;28;20072;-83
2024/01/20 04:17:36;;;;;;;10.23;7.20;;;;;;;;;;2108832;28;20028;-84
2024/01/20 04:19:30;;;;;;;11.45;7.70;;;;;;;;;;2101103;28;20036;-84
2024/01/20 04:20:57;;;;;;;11.38;7.35;;;;;;;;;;2107486;28;20035;-86
2024/01/20 04:26:14;;;;;;;10.05;6.32;;;;;;;;;;2104508;28;20052;-84
2024/01/20 04:32:09;;;;;;;12.63;8.15;;;;;;;;;;2088745;28;20063;-85
2024/01/20 04:34:05;;;;;;;13.35;7.90;;;;;;;;;;2084399;28;20033;-84
2024/01/20 04:35:58;;;;;;;;;;;;;;;;;;;;;
2024/01/20 04:37:30;;;;;;;10.55;6.95;;;;;;;;;;2108130;28;20016;-84
2024/01/20 04:39:00;;;;;;;10.70;7.65;;;;;;;;;;2099321;28;20024;-84
2024/01/20 04:40:29;;;;;;;10.88;7.43;;;;;;;;;;2093011;28;20025;-84
2024/01/20 04:42:00;;;;;;;11.35;6.90;;;;;;;;;;2087126;28;20036;-84
2024/01/20 04:43:27;;;;;;;10.43;6.95;;;;;;;;;;2091692;28;20021;-84
2024/01/20 04:47:03;;;;;;;12.35;7.70;;;;;;;;;;2097498;28;20100;-85
2024/01/20 04:48:42;;;;;;;13.32;7.90;;;;;;;;;;2092679;28;20636;-84
2024/01/20 04:50:10;;;;;;;18.73;7.93;;;;;;;;;;2097078;28;21715;-84
2024/01/20 04:51:30;;;;;;;11.50;7.78;;;;;;;;;;2089625;28;20032;-85
2024/01/20 04:53:01;;;;;;;11.85;7.72;;;;;;;;;;2091011;28;20052;-84
2024/01/20 04:54:52;;;;;;;11.30;7.85;;;;;;;;;;2085312;28;20029;-84
2024/01/20 04:56:28;;;;;;;11.52;7.72;;;;;;;;;;2093712;28;20112;-84
2024/01/20 05:00:04;;;;;;;;;;;;;;;;;;;;;
2024/01/20 05:01:52;;;;;;;;;;;;;;;;;;;;;
2024/01/20 05:03:35;;;;;;;17.40;8.25;;;;;;;;;;2096078;28;20025;-84
2024/01/20 05:07:17;;;;;;;12.10;8.57;;;;;;;;;;2064738;28;20038;-84
2024/01/20 05:08:40;;;;;;;14.60;8.77;;;;;;;;;;2087036;28;20037;-84
2024/01/20 05:10:08;;;;;;;15.70;9.50;;;;;;;;;;2084211;28;20029;-84
2024/01/20 05:11:35;;;;;;;13.30;8.73;;;;;;;;;;2088624;28;20029;-85
2024/01/20 05:12:57;;;;;;;14.80;9.25;;;;;;;;;;2086379;28;20033;-85
2024/01/20 05:14:26;;;;;;;14.75;7.05;;;;;;;;;;2084094;28;20029;-86
2024/01/20 05:17:28;;;;;;;15.55;9.25;;;;;;;;;;2099095;28;20060;-84
2024/01/20 05:18:48;;;;;;;14.57;9.05;;;;;;;;;;2099586;28;20103;-82
2024/01/20 05:20:07;;;;;;;20.42;8.30;;;;;;;;;;2096206;28;20032;-84
2024/01/20 05:22:03;;;;;;;12.15;8.38;;;;;;;;;;2094357;28;20088;-84
2024/01/20 05:23:23;;;;;;;12.57;7.85;;;;;;;;;;2105803;28;20062;-84
2024/01/20 05:25:03;;;;;;;11.02;7.78;;;;;;;;;;2095523;28;20644;-84
2024/01/20 05:26:30;;;;;;;13.02;7.50;;;;;;;;;;2098403;28;20052;-84
2024/01/20 05:27:49;;;;;;;14.35;8.02;;;;;;;;;;2088482;28;20053;-84
2024/01/20 05:29:18;;;;;;;10.45;7.18;;;;;;;;;;2093426;28;20024;-85
2024/01/20 05:30:46;;;;;;;15.80;8.30;;;;;;;;;;2100246;28;20032;-84
2024/01/20 05:32:10;;;;;;;13.98;7.95;;;;;;;;;;2102707;28;20044;-84
2024/01/20 05:33:40;;;;;;;10.70;7.70;;;;;;;;;;2100274;28;20059;-86
2024/01/20 05:35:09;;;;;;;13.10;7.55;;;;;;;;;;2098983;28;20505;-84
2024/01/20 05:36:29;;;;;;;11.18;7.95;;;;;;;;;;2101327;28;20032;-83
2024/01/20 05:37:51;;;;;;;10.02;7.60;;;;;;;;;;2097023;28;20065;-84
2024/01/20 05:39:20;;;;;;;;;;;;;;;;;;;;;
2024/01/20 05:40:48;;;;;;;12.75;7.40;;;;;;;;;;2101526;28;20103;-84
2024/01/20 05:42:18;;;;;;;11.00;7.53;;;;;;;;;;2098520;28;20081;-83
2024/01/20 05:43:37;;;;;;;11.68;7.85;;;;;;;;;;2098735;28;20048;-84
2024/01/20 05:45:08;;;;;;;;;;;;;;;;;;;;;
2024/01/20 05:48:33;;;;;;;9.82;6.82;;;;;;;;;;2064759;28;20034;-84
2024/01/20 05:49:52;;;;;;;9.48;6.90;;;;;;;;;;2058367;28;20106;-84
2024/01/20 05:51:32;;;;;;;9.02;7.07;;;;;;;;;;2055832;28;20038;-83
2024/01/20 05:55:34;;;;;;;;;;;;;;;;;;;;;
2024/01/20 05:57:03;;;;;;;8.13;6.85;;;;;;;;;;2048413;28;20516;-84
2024/01/20 05:58:25;;;;;;;11.30;6.93;;;;;;;;;;2059455;28;20137;-83
2024/01/20 05:59:56;;;;;;;10.70;7.25;;;;;;;;;;2075543;28;20457;-84
2024/01/20 06:01:53;;;;;;;;;;;;;;;;;;;;;
2024/01/20 06:05:58;;;;;;;7.07;6.05;;;;;;;;;;2061103;28;21843;-83
2024/01/20 06:09:51;;;;;;;13.35;6.40;;;;;;;;;;2087231;28;20534;-84
2024/01/20 06:11:24;;;;;;;10.00;6.20;;;;;;;;;;2106860;28;20114;-84
2024/01/20 06:14:49;;;;;;;11.15;6.57;;;;;;;;;;2105807;28;20040;-84
2024/01/20 06:16:22;;;;;;;10.85;6.13;;;;;;;;;;2108363;28;20051;-84
2024/01/20 06:18:05;;;;;;;10.73;6.03;;;;;;;;;;2109802;28;20040;-84
2024/01/20 06:19:40;;;;;;;9.68;6.10;;;;;;;;;;2098177;28;20033;-84
2024/01/20 06:21:06;;;;;;;9.10;6.53;;;;;;;;;;2097076;28;20028;-84
2024/01/20 06:22:30;;;;;;;9.13;6.70;;;;;;;;;;2106304;28;20047;-84
2024/01/20 06:23:54;;;;;;;7.65;6.32;;;;;;;;;;2099759;28;20028;-84
2024/01/20 06:25:22;;;;;;;8.15;6.78;;;;;;;;;;2099682;28;20032;-84
2024/01/20 06:26:44;;;;;;;10.70;6.30;;;;;;;;;;2097446;28;20056;-83
2024/01/20 06:28:32;;;;;;;9.30;7.10;;;;;;;;;;2096247;28;20623;-84
2024/01/20 06:29:57;;;;;;;8.50;6.47;;;;;;;;;;2102096;28;20033;-85
2024/01/20 06:31:32;;;;;;;9.60;6.47;;;;;;;;;;2095605;28;20020;-84
2024/01/20 06:34:52;;;;;;;7.72;6.57;;;;;;;;;;2109453;28;20036;-84
2024/01/20 06:36:26;;;;;;;10.98;6.57;;;;;;;;;;2099918;28;20032;-84
2024/01/20 06:39:27;;;;;;;9.20;6.63;;;;;;;;;;2105435;28;20036;-84
2024/01/20 06:42:37;;;;;;;8.18;5.95;;;;;;;;;;2108081;28;20131;-82
2024/01/20 06:44:01;;;;;;;8.82;6.22;;;;;;;;;;2105135;28;20024;-82
2024/01/20 06:45:23;;;;;;;8.88;6.38;;;;;;;;;;2099570;28;22224;-82
2024/01/20 06:46:51;;;;;;;8.55;5.72;;;;;;;;;;2105493;28;20051;-83
2024/01/20 06:48:43;;;;;;;11.15;6.60;;;;;;;;;;2101791;28;20020;-86
2024/01/20 06:52:03;;;;;;;;;;;;;;;;;;;;;
2024/01/20 06:53:33;;;;;;;10.40;6.55;;;;;;;;;;2108815;28;20060;-86
2024/01/20 06:55:04;;;;;;;9.05;6.22;;;;;;;;;;2106468;28;20060;-86
2024/01/20 06:57:16;;;;;;;9.27;6.40;;;;;;;;;;2095781;28;20037;-85
2024/01/20 06:59:04;;;;;;;8.23;5.72;;;;;;;;;;2105115;28;20064;-83
2024/01/20 07:00:23;;;;;;;7.82;6.13;;;;;;;;;;2098168;28;20036;-83
2024/01/20 07:01:50;;;;;;;9.82;5.95;;;;;;;;;;2106449;28;20126;-83
2024/01/20 07:03:09;;;;;;;14.02;7.28;;;;;;;;;;2097364;28;20024;-83
2024/01/20 07:04:37;;;;;;;7.63;5.97;;;;;;;;;;2095922;28;20043;-83
2024/01/20 07:06:07;;;;;;;11.18;6.65;;;;;;;;;;2093584;28;20501;-83
2024/01/20 07:07:26;;;;;;;6.63;6.03;;;;;;;;;;2094794;28;20214;-83
2024/01/20 07:08:45;;;;;;;12.02;6.65;;;;;;;;;;2085418;28;20052;-83
2024/01/20 07:10:08;;;;;;;6.90;6.20;;;;;;;;;;2087124;28;20029;-81
2024/01/20 07:11:31;;;;;;;;;;;;;;;;;;2088814;28;20033;-83
2024/01/20 07:13:03;;;;;;;10.07;5.90;;;;;;;;;;2097573;28;19908;-83
2024/01/20 07:14:26;;;;;;;9.65;6.38;;;;;;;;;;2090256;28;20073;-83
2024/01/20 07:16:31;;;;;;;10.65;6.03;;;;;;;;;;2094917;28;20024;-84
2024/01/20 07:18:21;;;;;;;11.13;6.45;;;;;;;;;;2085088;28;20025;-84
2024/01/20 07:19:48;;;;;;;12.48;7.03;;;;;;;;;;2087085;28;20029;-84
2024/01/20 07:23:13;;;;;;;9.52;6.05;;;;;;;;;;2101105;28;20028;-84
2024/01/20 07:26:39;;;;;;;;;;;;;;;;;;;;;
2024/01/20 07:28:12;;;;;;;8.40;5.68;;;;;;;;;;2098122;28;20029;-83
2024/01/20 07:29:41;;;;;;;;;;;;;;;;;;;;;
2024/01/20 07:31:25;;;;;;;;;;;;;;;;;;;;;
2024/01/20 07:32:47;;;;;;;9.45;5.85;;;;;;;;;;2099791;28;20040;-83
2024/01/20 07:34:09;;;;;;;6.20;4.65;;;;;;;;;;2086900;28;20041;-86
2024/01/20 07:37:35;;;;;;;;;;;;;;;;;;;;;
2024/01/20 07:39:00;;;;;;;9.63;5.88;;;;;;;;;;2098141;28;20060;-82
2024/01/20 07:40:20;;;;;;;9.85;5.97;;;;;;;;;;2097020;28;20024;-85
2024/01/20 07:41:42;;;;;;;10.95;5.70;;;;;;;;;;2089737;28;20104;-84
2024/01/20 07:43:04;;;;;;;7.07;5.57;;;;;;;;;;2089648;28;20033;-83
2024/01/20 07:44:26;;;;;;;8.55;5.85;;;;;;;;;;2086723;28;20037;-83
2024/01/20 07:46:26;;;;;;;8.18;5.43;;;;;;;;;;2094910;28;20032;-83
2024/01/20 07:49:41;;;;;;;11.50;5.20;;;;;;;;;;2055696;28;20035;-83
2024/01/20 07:51:26;;;;;;;;;;;;;;;;;;;;;
2024/01/20 07:57:25;;;;;;;7.97;5.63;;;;;;;;;;2048097;28;20046;-87
2024/01/20 07:59:36;;;;;;;;;;;;;;;;;;;;;
2024/01/20 08:03:08;;;;;;;7.20;5.88;;;;;;;;;;2098424;28;20033;-86
2024/01/20 08:07:43;;;;;;;8.38;6.07;;;;;;;;;;2096327;28;20467;-86
2024/01/20 08:08:47;;;;;;;7.55;5.80;;;;;;;;;;2100548;28;20047;-87
2024/01/20 08:10:15;;;;;;;8.50;6.32;;;;;;;;;;2104813;28;20417;-87
2024/01/20 08:11:51;;;;;;;8.55;5.90;;;;;;;;;;2101547;28;20111;-88
2024/01/20 08:15:46;;;;;;;7.45;5.88;;;;;;;;;;2104528;28;20119;-87
2024/01/20 08:27:40;;;;;;;7.13;5.97;;;;;;;;;;2064834;28;20038;-87
2024/01/20 08:38:07;;;;;;;;;;;;;;;;;;;;;
2024/01/20 08:47:34;;;;;;;7.72;6.75;;;;;;;;;;2019165;29;20025;-83
2024/01/20 08:49:51;;;;;;;;;;;;;;;;;;;;;
2024/01/20 08:53:22;;;;;;;9.85;6.20;;;;;;;;;;2025086;29;20032;-86
2024/01/20 08:58:55;;;;;;;8.20;6.28;;;;;;;;;;2028873;29;20032;-83
2024/01/20 09:00:17;;;;;;;8.45;6.40;;;;;;;;;;2034950;29;20122;-83
2024/01/20 09:01:45;;;;;;;8.82;6.45;;;;;;;;;;2028859;29;20036;-85
2024/01/20 09:03:35;;;;;;;9.25;5.97;;;;;;;;;;2030262;29;20028;-83
2024/01/20 09:07:11;;;;;;;9.77;6.20;;;;;;;;;;2022508;29;20044;-83
2024/01/20 09:15:14;;;;;;;7.28;6.07;;;;;;;;;;2044157;28;20050;-84
2024/01/20 09:17:15;;;;;;;6.47;5.20;;;;;;;;;;2046713;28;20055;-84
2024/01/20 09:22:51;;;;;;;;;;;;;;;;;;;;;
2024/01/20 09:24:43;;;;;;;7.20;5.45;;;;;;;;;;2026542;29;20025;-85
2024/01/20 09:29:04;;;;;;;;;;;;;;;;;;;;;
2024/01/20 09:30:38;;;;;;;5.30;4.80;;;;;;;;;;1996003;29;20034;-92
2024/01/20 09:34:43;;;;;;;;;;;;;;;;;;;;;
2024/01/20 09:36:06;;;;;;;6.28;5.35;;;;;;;;;;2085086;28;20527;-85
2024/01/20 09:37:25;;;;;;;6.75;4.68;;;;;;;;;;2074873;28;20058;-82
2024/01/20 09:38:46;;;;;;;7.25;4.82;;;;;;;;;;2079713;28;20026;-84
2024/01/20 09:40:14;;;;;;;6.22;5.13;;;;;;;;;;2075242;28;20519;-86
2024/01/20 09:41:34;;;;;;;5.43;4.85;;;;;;;;;;2081225;28;20044;-83
2024/01/20 09:42:54;;;;;;;6.45;5.05;;;;;;;;;;2072117;28;20038;-83
2024/01/20 09:44:16;;;;;;;5.55;5.05;;;;;;;;;;2073301;28;20037;-84
2024/01/20 09:48:14;;;;;;;;;;;;;;;;;;;;;
2024/01/20 09:49:50;;;;;;;;;;;;;;;;;;;;;
2024/01/20 09:51:15;;;;;;;6.63;5.07;;;;;;;;;;2092744;28;20028;-86
2024/01/20 09:52:48;;;;;;;5.10;4.70;;;;;;;;;;2097423;28;20116;-83
2024/01/20 09:54:12;;;;;;;4.95;4.40;;;;;;;;;;2088044;28;20035;-83
2024/01/20 09:55:37;;;;;;;8.55;4.72;;;;;;;;;;2094994;28;20040;-84
2024/01/20 09:57:22;;;;;;;6.97;4.95;;;;;;;;;;2089875;28;20112;-83
2024/01/20 09:59:00;;;;;;;4.53;4.13;;;;;;;;;;2087051;28;20037;-83
2024/01/20 10:02:10;;;;;;;5.43;4.57;;;;;;;;;;2093947;28;20032;-85
2024/01/20 10:03:35;;;;;;;4.97;4.45;;;;;;;;;;2086687;28;20030;-84
2024/01/20 10:07:31;;;;;;;;;;;;;;;;;;;;;
2024/01/20 10:17:37;;;;;;;5.15;4.53;;;;;;;;;;2063364;28;20030;-90
2024/01/20 10:19:00;;;;;;;6.78;4.88;;;;;;;;;;2063137;28;20066;-87
2024/01/20 10:22:47;;;;;;;;;;;;;;;;;;;;;
2024/01/20 10:24:23;;;;;;;6.75;5.07;;;;;;;;;;2077876;28;20037;-89
2024/01/20 10:27:54;;;;;;;6.10;4.57;;;;;;;;;;2076328;28;20609;-86
2024/01/20 10:29:13;;;;;;;;;;;;;;;;;;2073347;28;20045;-87
2024/01/20 10:31:06;;;;;;;6.68;4.80;;;;;;;;;;2072154;28;19906;-87
2024/01/20 10:32:31;;;;;;;8.40;5.25;;;;;;;;;;2078074;28;20033;-88
2024/01/20 10:34:19;;;;;;;7.57;5.82;;;;;;;;;;2079440;28;20029;-86
2024/01/20 10:35:36;;;;;;;8.75;5.75;;;;;;;;;;2072183;28;20045;-87
2024/01/20 10:37:00;;;;;;;6.05;5.00;;;;;;;;;;2070834;28;20499;-84
2024/01/20 10:38:26;;;;;;;6.07;5.47;;;;;;;;;;2093413;28;20024;-83
2024/01/20 10:39:45;;;;;;;6.95;6.22;;;;;;;;;;2094355;28;20036;-89
2024/01/20 10:41:07;;;;;;;7.00;5.68;;;;;;;;;;2103180;28;20020;-88
2024/01/20 10:42:37;;;;;;;6.18;5.50;;;;;;;;;;2104510;28;20032;-86
2024/01/20 10:44:01;;;;;;;7.80;5.57;;;;;;;;;;2095456;28;20037;-88
2024/01/20 10:45:21;;;;;;;6.45;5.75;;;;;;;;;;2098378;28;20052;-86
2024/01/20 10:46:50;;;;;;;6.35;5.50;;;;;;;;;;2096197;28;20032;-88
2024/01/20 10:48:23;;;;;;;7.13;5.90;;;;;;;;;;2098977;28;20040;-85
2024/01/20 10:49:49;;;;;;;9.50;6.00;;;;;;;;;;2101681;28;20051;-90
2024/01/20 10:51:17;;;;;;;9.73;6.00;;;;;;;;;;2101535;28;20028;-90
2024/01/20 10:52:54;;;;;;;7.18;5.90;;;;;;;;;;2100538;28;20693;-92
2024/01/20 10:54:14;;;;;;;9.25;6.20;;;;;;;;;;2096338;28;20075;-88
2024/01/20 10:55:45;;;;;;;7.57;5.80;;;;;;;;;;2094898;28;20092;-89
2024/01/20 10:57:22;;;;;;;6.68;5.35;;;;;;;;;;2105568;28;20032;-87
2024/01/20 10:58:48;;;;;;;8.25;5.65;;;;;;;;;;2092900;28;20028;-93
2024/01/20 11:00:10;;;;;;;10.23;6.18;;;;;;;;;;2102903;28;20194;-87
2024/01/20 11:01:32;;;;;;;6.43;5.82;;;;;;;;;;2099017;28;20032;-87
2024/01/20 11:03:04;;;;;;;8.63;5.80;;;;;;;;;;2100915;28;20047;-88
2024/01/20 11:06:26;;;;;;;9.63;5.22;;;;;;;;;;2073052;28;20507;-88
2024/01/20 11:08:02;;;;;;;6.18;5.45;;;;;;;;;;2066405;28;20116;-89
2024/01/20 11:09:33;;;;;;;7.50;5.47;;;;;;;;;;2068034;28;20042;-89
2024/01/20 11:13:00;;;;;;;9.77;5.70;;;;;;;;;;2092957;28;20029;-82
2024/01/20 11:14:41;;;;;;;7.00;5.60;;;;;;;;;;2100856;28;20136;-86
2024/01/20 11:16:26;;;;;;;8.73;5.65;;;;;;;;;;2092844;28;21877;-86
2024/01/20 11:17:59;;;;;;;7.43;5.47;;;;;;;;;;2094198;28;20060;-88
2024/01/20 11:19:19;;;;;;;6.97;6.00;;;;;;;;;;2093523;28;20513;-83
2024/01/20 11:20:54;;;;;;;6.25;5.25;;;;;;;;;;2087264;28;20162;-85
2024/01/20 11:22:34;;;;;;;6.95;5.32;;;;;;;;;;2097184;28;20063;-85
2024/01/20 11:23:58;;;;;;;7.80;5.78;;;;;;;;;;2094222;28;20056;-87
2024/01/20 11:25:29;;;;;;;7.80;5.63;;;;;;;;;;2094575;28;20083;-88
2024/01/20 11:27:02;;;;;;;6.57;5.70;;;;;;;;;;2095567;28;20107;-90
2024/01/20 11:28:31;;;;;;;6.93;4.97;;;;;;;;;;2093263;28;20518;-84
2024/01/20 11:29:50;;;;;;;7.97;6.13;;;;;;;;;;2092972;28;20096;-84
2024/01/20 11:31:22;;;;;;;7.30;5.13;;;;;;;;;;2093693;28;20032;-84
2024/01/20 11:32:42;;;;;;;8.65;6.15;;;;;;;;;;2095932;28;20521;-83
2024/01/20 11:34:05;;;;;;;6.97;5.20;;;;;;;;;;2091251;28;20029;-83
2024/01/20 11:35:27;;;;;;;7.30;5.65;;;;;;;;;;2099430;28;20170;-83
2024/01/20 11:36:48;;;;;;;8.05;5.72;;;;;;;;;;2097338;28;20029;-83
2024/01/20 11:38:10;;;;;;;7.80;5.53;;;;;;;;;;2090246;28;20028;-83
2024/01/20 11:39:29;;;;;;;9.52;5.65;;;;;;;;;;2086041;28;20041;-84
2024/01/20 11:41:01;;;;;;;6.28;5.25;;;;;;;;;;2093708;28;20029;-83
2024/01/20 11:42:32;;;;;;;6.13;5.53;;;;;;;;;;2095406;28;20036;-83
2024/01/20 11:43:52;;;;;;;6.90;6.18;;;;;;;;;;2094500;28;20029;-84
2024/01/20 11:45:11;;;;;;;7.70;5.63;;;;;;;;;;2094025;28;20028;-84
2024/01/20 11:46:35;;;;;;;6.95;5.95;;;;;;;;;;2096607;28;20029;-83
2024/01/20 11:47:56;;;;;;;9.57;6.35;;;;;;;;;;2094973;28;20028;-83
2024/01/20 11:49:15;;;;;;;7.28;5.90;;;;;;;;;;2092037;28;21598;-83
2024/01/20 11:50:34;;;;;;;6.45;5.65;;;;;;;;;;2095872;28;20135;-83
2024/01/20 11:51:54;;;;;;;6.03;5.43;;;;;;;;;;2090081;28;20029;-83
2024/01/20 11:53:16;;;;;;;11.80;5.55;;;;;;;;;;2096484;28;20074;-83
2024/01/20 11:54:35;;;;;;;10.07;5.30;;;;;;;;;;2103759;28;20020;-83
2024/01/20 11:55:58;;;;;;;7.05;5.82;;;;;;;;;;2100483;28;20020;-83
2024/01/20 11:57:26;;;;;;;8.95;5.57;;;;;;;;;;2094970;28;20032;-83
2024/01/20 11:58:46;;;;;;;8.50;6.60;;;;;;;;;;2094461;28;20028;-83
2024/01/20 12:00:06;;;;;;;10.00;5.45;;;;;;;;;;2095554;28;20029;-83
2024/01/20 12:01:25;;;;;;;8.68;6.07;;;;;;;;;;2103828;28;20052;-84
2024/01/20 12:02:46;;;;;;;7.35;5.45;;;;;;;;;;2094863;28;20032;-83
2024/01/20 12:04:05;;;;;;;7.88;5.43;;;;;;;;;;2090423;28;20037;-83
2024/01/20 12:05:24;;;;;;;11.15;5.30;;;;;;;;;;2092758;28;20044;-84
2024/01/20 12:06:45;;;;;;;6.65;5.13;;;;;;;;;;2096223;28;20601;-84
2024/01/20 12:08:07;;;;;;;8.00;6.20;;;;;;;;;;2100650;28;20032;-84
2024/01/20 12:09:26;;;;;;;6.22;5.63;;;;;;;;;;2102003;28;20513;-84
2024/01/20 12:10:46;;;;;;;9.13;5.90;;;;;;;;;;2103888;28;20049;-84
2024/01/20 12:12:05;;;;;;;7.15;5.50;;;;;;;;;;2093602;28;20060;-83
2024/01/20 12:13:26;;;;;;;6.70;4.85;;;;;;;;;;2095906;28;20033;-83
2024/01/20 12:14:45;;;;;;;6.35;5.35;;;;;;;;;;2098533;28;20455;-83
2024/01/20 12:16:04;;;;;;;5.82;4.75;;;;;;;;;;2106648;28;20531;-84
2024/01/20 12:17:24;;;;;;;8.38;5.55;;;;;;;;;;2098227;28;21256;-84
2024/01/20 12:18:43;;;;;;;9.75;5.00;;;;;;;;;;2093206;28;20029;-84
2024/01/20 12:20:03;;;;;;;9.05;5.65;;;;;;;;;;2096496;28;20623;-84
2024/01/20 12:21:22;;;;;;;7.65;5.70;;;;;;;;;;2093393;28;20522;-84
2024/01/20 12:22:41;;;;;;;11.07;5.90;;;;;;;;;;2094372;28;20037;-85
2024/01/20 12:24:00;;;;;;;7.70;5.30;;;;;;;;;;2102996;28;20103;-84
2024/01/20 13:23:59;;;;;;;10.30;7.55;;;;;;;;;;2106441;28;20020;-82
2024/01/20 13:25:18;;;;;;;10.82;8.02;;;;;;;;;;2090282;28;20041;-82
2024/01/20 13:26:37;;;;;;;8.57;6.65;;;;;;;;;;2086903;28;20071;-84
2024/01/20 13:27:56;;;;;;;9.82;7.65;;;;;;;;;;2094337;28;20064;-84
2024/01/20 13:29:15;;;;;;;8.90;6.85;;;;;;;;;;2094502;28;20025;-81
2024/01/20 13:32:34;;;;;;;7.32;5.85;;;;;;;;;;2106587;28;20020;-83
2024/01/20 13:33:54;;;;;;;8.80;6.22;;;;;;;;;;2095303;28;20029;-81
2024/01/20 13:35:16;;;;;;;6.25;5.63;;;;;;;;;;2090006;28;20116;-81
2024/01/20 13:36:35;;;;;;;7.15;5.30;;;;;;;;;;2096092;28;20028;-80
2024/01/20 13:37:54;;;;;;;7.55;5.43;;;;;;;;;;2087880;28;20089;-83